Time;durP1;ratioP1;P1;durP2;ratioP2;P2;SDS_P1;SDS_P2;PMS_P1;PMS_P2;Temp;Humidity;BMP_temperature;BMP_pressure;BME280_temperature;BME280_humidity;BME280_pressure;Samples;Min_cycle;Max_cycle;Signal;HPM_P1;HPM_P2
2021/11/22 00:01:03;;;;;;;1.15;1.15;;;;;;;0.78;84.86;98185.44;6365477;22;20015;-79
2021/11/22 00:03:30;;;;;;;0.93;0.93;;;;;;;0.78;85.80;98179.44;6364974;22;20014;-76
2021/11/22 00:05:56;;;;;;;2.70;2.50;;;;;;;0.72;85.29;98180.53;6365081;22;20048;-77
2021/11/22 00:08:22;;;;;;;1.15;1.15;;;;;;;0.65;85.30;98186.84;6363458;22;20097;-79
2021/11/22 00:10:48;;;;;;;3.42;3.10;;;;;;;0.61;85.21;98189.59;6364803;22;20046;-77
2021/11/22 00:13:15;;;;;;;2.67;2.47;;;;;;;0.55;85.89;98198.38;6363384;22;20022;-78
2021/11/22 00:15:40;;;;;;;1.30;1.30;;;;;;;0.52;86.09;98201.09;6364830;22;20121;-77
2021/11/22 00:18:08;;;;;;;0.77;0.77;;;;;;;0.48;86.06;98202.09;6364698;22;20501;-78
2021/11/22 00:20:34;;;;;;;1.05;1.05;;;;;;;0.44;86.33;98200.53;6365110;22;20014;-79
2021/11/22 00:23:00;;;;;;;1.25;1.25;;;;;;;0.45;86.00;98212.50;6365073;22;20026;-78
2021/11/22 00:25:26;;;;;;;2.88;2.67;;;;;;;0.44;85.68;98214.22;6364575;22;20025;-79
2021/11/22 00:27:52;;;;;;;2.33;2.22;;;;;;;0.42;86.12;98222.88;6364844;22;20014;-78
2021/11/22 00:30:38;;;;;;;1.10;1.10;;;;;;;0.41;85.75;98221.22;6363265;22;20018;-78
2021/11/22 00:33:09;;;;;;;1.45;1.35;;;;;;;0.36;86.54;98229.06;6340022;22;20014;-77
2021/11/22 00:36:13;;;;;;;0.80;0.80;;;;;;;0.35;86.87;98231.72;6367041;22;20142;-78
2021/11/22 00:38:40;;;;;;;0.50;0.50;;;;;;;0.34;86.93;98230.88;6386087;22;20093;-78
2021/11/22 00:41:07;;;;;;;0.60;0.60;;;;;;;0.37;85.59;98241.03;6387365;22;19998;-77
2021/11/22 00:43:33;;;;;;;0.93;0.93;;;;;;;0.39;85.29;98239.22;6383074;22;20010;-77
2021/11/22 00:45:59;;;;;;;0.77;0.77;;;;;;;0.39;85.73;98244.34;6368859;22;20410;-78
2021/11/22 00:48:25;;;;;;;1.40;1.40;;;;;;;0.39;85.72;98244.34;6397969;22;20625;-78
2021/11/22 00:50:52;;;;;;;18.63;1.27;;;;;;;0.45;85.58;98248.41;6397277;22;20023;-77
2021/11/22 00:53:19;;;;;;;1.30;1.30;;;;;;;0.39;85.90;98246.09;6396992;22;20025;-76
2021/11/22 00:55:44;;;;;;;1.90;1.80;;;;;;;0.44;85.97;98247.59;6397244;22;20344;-78
2021/11/22 00:58:11;;;;;;;0.80;0.80;;;;;;;0.46;85.68;98250.06;6396734;22;20446;-77
2021/11/22 01:00:37;;;;;;;1.00;1.00;;;;;;;0.44;86.51;98257.00;6368491;22;20045;-77
2021/11/22 01:03:03;;;;;;;0.93;0.93;;;;;;;0.39;86.32;98253.81;6396439;22;20020;-77
2021/11/22 01:05:30;;;;;;;0.80;0.80;;;;;;;0.42;86.06;98258.81;6396239;22;20066;-78
2021/11/22 01:08:00;;;;;;;0.60;0.60;;;;;;;0.40;85.92;98250.31;6396207;22;20017;-76
2021/11/22 01:10:26;;;;;;;0.90;0.90;;;;;;;0.40;84.75;98251.16;6367568;22;20105;-78
2021/11/22 01:12:52;;;;;;;0.80;0.80;;;;;;;0.43;84.38;98261.31;6396008;22;20462;-77
2021/11/22 01:15:21;;;;;;;0.55;0.55;;;;;;;0.43;84.62;98265.59;6396331;22;20014;-78
2021/11/22 01:17:47;;;;;;;1.23;1.23;;;;;;;0.42;84.39;98261.38;6368068;22;20067;-79
2021/11/22 01:20:16;;;;;;;0.77;0.77;;;;;;;0.45;83.82;98259.53;6368466;22;20024;-80
2021/11/22 01:22:42;;;;;;;1.10;1.10;;;;;;;0.44;83.96;98267.28;6367750;22;20451;-79
2021/11/22 01:25:09;;;;;;;0.77;0.77;;;;;;;0.47;82.62;98272.28;6368281;22;20018;-79
2021/11/22 01:27:35;;;;;;;0.70;0.70;;;;;;;0.52;81.96;98278.09;6396029;22;20025;-80
2021/11/22 01:30:08;;;;;;;0.93;0.93;;;;;;;0.54;81.86;98271.16;6368447;22;20096;-81
2021/11/22 01:32:35;;;;;;;0.90;0.90;;;;;;;0.58;78.22;98277.84;6368967;22;20520;-81
2021/11/22 01:35:01;;;;;;;0.50;0.50;;;;;;;0.60;78.35;98276.03;6368290;22;20406;-79
2021/11/22 01:37:29;;;;;;;0.50;0.50;;;;;;;0.58;78.15;98277.84;6395975;22;20045;-81
2021/11/22 01:39:55;;;;;;;0.65;0.65;;;;;;;0.53;76.70;98278.00;6367799;22;20067;-81
2021/11/22 01:42:21;;;;;;;0.47;0.47;;;;;;;0.60;77.60;98288.03;6367875;22;20013;-81
2021/11/22 01:44:47;;;;;;;1.05;1.05;;;;;;;0.55;78.52;98272.81;6395369;22;20017;-80
2021/11/22 01:47:13;;;;;;;0.80;0.80;;;;;;;0.58;77.38;98288.09;6395296;22;20055;-80
2021/11/22 01:49:39;;;;;;;0.50;0.50;;;;;;;0.61;78.35;98297.41;6395265;22;20018;-80
2021/11/22 01:52:05;;;;;;;0.70;0.70;;;;;;;0.53;78.81;98293.41;6396189;22;20071;-78
2021/11/22 01:54:31;;;;;;;0.50;0.50;;;;;;;0.55;78.88;98301.06;6395392;22;20014;-77
2021/11/22 01:56:58;;;;;;;0.57;0.57;;;;;;;0.59;78.74;98296.66;6341255;22;20095;-76
2021/11/22 01:59:24;;;;;;;0.50;0.50;;;;;;;0.55;78.67;98303.63;6395808;22;20014;-77
2021/11/22 02:01:50;;;;;;;1.23;1.23;;;;;;;0.56;78.47;98302.72;6396005;22;20025;-78
2021/11/22 02:04:17;;;;;;;0.73;0.73;;;;;;;0.58;78.54;98300.94;6395792;22;20018;-80
2021/11/22 02:06:43;;;;;;;0.60;0.60;;;;;;;0.58;78.25;98300.94;6395843;22;20048;-80
2021/11/22 02:09:09;;;;;;;0.50;0.50;;;;;;;0.55;78.90;98303.63;6396178;22;20018;-81
2021/11/22 02:11:36;;;;;;;0.52;0.52;;;;;;;0.47;79.64;98311.63;6395780;22;20021;-79
2021/11/22 02:14:03;;;;;;;0.50;0.50;;;;;;;0.44;79.41;98309.19;6368104;22;20020;-81
2021/11/22 02:16:29;;;;;;;0.70;0.70;;;;;;;0.48;78.94;98315.88;6367897;22;20014;-80
2021/11/22 02:18:55;;;;;;;0.80;0.80;;;;;;;0.49;78.98;98314.16;6395769;22;20024;-79
2021/11/22 02:21:21;;;;;;;0.82;0.82;;;;;;;0.49;78.52;98314.16;6395652;22;20647;-77
2021/11/22 02:23:47;;;;;;;1.15;1.15;;;;;;;0.53;77.92;98315.66;6395429;22;20009;-79
2021/11/22 02:26:13;;;;;;;0.60;0.60;;;;;;;0.55;78.11;98316.47;6395758;22;20021;-80
2021/11/22 02:28:40;;;;;;;0.80;0.80;;;;;;;0.53;78.53;98313.94;6395405;22;20092;-78
2021/11/22 02:31:06;;;;;;;0.82;0.82;;;;;;;0.49;78.44;98319.28;6367642;22;20030;-79
2021/11/22 02:33:32;;;;;;;1.55;1.55;;;;;;;0.45;78.84;98312.59;6367377;22;20014;-79
2021/11/22 02:36:00;;;;;;;0.60;0.60;;;;;;;0.46;80.08;98320.22;6395853;22;20017;-80
2021/11/22 02:38:31;;;;;;;0.73;0.73;;;;;;;0.40;80.92;98317.03;6367225;22;20039;-80
2021/11/22 02:40:58;;;;;;;0.80;0.80;;;;;;;0.42;81.03;98328.09;6395785;22;20071;-80
2021/11/22 02:43:25;;;;;;;0.68;0.68;;;;;;;0.44;80.70;98332.28;6395527;22;20010;-78
2021/11/22 02:45:51;;;;;;;0.70;0.70;;;;;;;0.42;81.53;98326.38;6341687;22;20020;-79
2021/11/22 02:48:17;;;;;;;0.82;0.82;;;;;;;0.44;80.71;98326.31;6394159;22;20022;-81
2021/11/22 02:50:45;;;;;;;0.80;0.80;;;;;;;0.47;81.65;98339.00;6366310;22;20017;-80
2021/11/22 02:53:12;;;;;;;0.73;0.73;;;;;;;0.43;82.17;98343.44;6367001;22;20763;-79
2021/11/22 02:55:40;;;;;;;0.50;0.50;;;;;;;0.46;81.96;98329.63;6367093;22;20025;-79
2021/11/22 02:58:06;;;;;;;0.50;0.50;;;;;;;0.54;79.75;98345.59;6395048;22;20059;-81
2021/11/22 03:00:33;;;;;;;0.60;0.60;;;;;;;0.59;79.77;98348.78;6394627;22;20018;-80
2021/11/22 03:02:59;;;;;;;0.50;0.50;;;;;;;0.52;81.27;98357.66;6394162;22;20300;-79
2021/11/22 03:05:25;;;;;;;0.50;0.50;;;;;;;0.51;80.43;98351.69;6394674;22;20022;-79
2021/11/22 03:07:52;;;;;;;0.50;0.50;;;;;;;0.52;80.34;98362.78;6394303;22;20048;-80
2021/11/22 03:10:19;;;;;;;0.50;0.50;;;;;;;0.53;80.55;98364.44;6394960;22;20448;-79
2021/11/22 03:12:45;;;;;;;0.57;0.57;;;;;;;0.50;80.85;98372.25;6395310;22;20021;-78
2021/11/22 03:15:13;;;;;;;0.57;0.57;;;;;;;0.51;80.18;98361.09;6394849;22;20018;-79
2021/11/22 03:17:40;;;;;;;0.60;0.60;;;;;;;0.55;80.15;98370.38;6341427;22;20014;-81
2021/11/22 03:20:07;;;;;;;0.57;0.57;;;;;;;0.51;80.40;98371.38;6367289;22;20010;-79
2021/11/22 03:22:33;;;;;;;0.57;0.57;;;;;;;0.55;80.09;98379.78;6367030;22;20561;-81
2021/11/22 03:25:00;;;;;;;0.50;0.50;;;;;;;0.51;80.98;98382.47;6366481;22;20411;-80
2021/11/22 03:27:26;;;;;;;0.60;0.60;;;;;;;0.51;80.95;98379.06;6394177;22;20100;-80
2021/11/22 03:29:52;;;;;;;0.73;0.73;;;;;;;0.51;81.17;98377.34;6394018;22;20022;-79
2021/11/22 03:32:18;;;;;;;0.60;0.60;;;;;;;0.46;81.55;98375.84;6366564;22;20018;-79
2021/11/22 03:34:44;;;;;;;0.50;0.50;;;;;;;0.48;81.21;98384.31;6394960;22;20038;-78
2021/11/22 03:37:10;;;;;;;1.38;1.38;;;;;;;0.46;79.31;98373.25;6395060;22;20021;-79
2021/11/22 03:39:36;;;;;;;0.60;0.60;;;;;;;0.52;78.81;98373.06;6366625;22;20017;-77
2021/11/22 03:42:06;;;;;;;0.70;0.70;;;;;;;0.51;78.05;98373.94;6366117;22;20018;-79
2021/11/22 03:44:34;;;;;;;0.50;0.50;;;;;;;0.57;78.39;98386.53;6394590;22;20389;-77
2021/11/22 03:47:01;;;;;;;0.63;0.63;;;;;;;0.54;78.88;98396.91;6394714;22;20105;-77
2021/11/22 03:49:27;;;;;;;0.52;0.52;;;;;;;0.48;78.63;98374.91;6394595;22;20018;-77
2021/11/22 03:51:53;;;;;;;1.25;1.25;;;;;;;0.55;77.66;98393.47;6366700;22;20048;-77
2021/11/22 03:54:19;;;;;;;0.60;0.60;;;;;;;0.57;77.83;98390.81;6394856;22;20045;-77
2021/11/22 03:56:45;;;;;;;0.73;0.73;;;;;;;0.56;78.07;98395.13;6394680;22;20017;-76
2021/11/22 03:59:12;;;;;;;1.25;1.15;;;;;;;0.55;78.12;98413.16;6367204;22;20052;-77
2021/11/22 04:01:39;;;;;;;0.60;0.60;;;;;;;0.49;79.62;98421.94;6340898;22;20074;-79
2021/11/22 04:04:06;;;;;;;1.30;1.30;;;;;;;0.35;81.26;98419.88;6394072;22;20793;-78
2021/11/22 04:06:33;;;;;;;0.50;0.50;;;;;;;0.37;79.94;98430.06;6394105;22;20014;-78
2021/11/22 04:08:59;;;;;;;0.70;0.70;;;;;;;0.39;78.65;98439.38;6394730;22;20022;-80
2021/11/22 04:11:25;;;;;;;0.70;0.70;;;;;;;0.38;78.51;98432.59;6366935;22;20050;-77
2021/11/22 04:13:52;;;;;;;1.05;1.05;;;;;;;0.39;78.26;98436.00;6366414;22;20054;-78
2021/11/22 04:16:18;;;;;;;0.85;0.85;;;;;;;0.45;76.96;98451.19;6394950;22;20457;-78
2021/11/22 04:18:44;;;;;;;0.60;0.60;;;;;;;0.44;77.67;98445.19;6394637;22;20024;-79
2021/11/22 04:21:12;;;;;;;0.68;0.68;;;;;;;0.47;78.09;98446.81;6396902;22;20078;-78
2021/11/22 04:23:38;;;;;;;1.27;1.27;;;;;;;0.44;78.07;98457.19;6368153;22;20024;-81
2021/11/22 04:26:06;;;;;;;0.70;0.70;;;;;;;0.43;78.58;98460.63;6342232;22;20018;-81
2021/11/22 04:28:32;;;;;;;0.73;0.73;;;;;;;0.45;78.06;98469.97;6396283;22;20016;-80
2021/11/22 04:30:58;;;;;;;0.60;0.60;;;;;;;0.46;77.75;98470.78;6367607;22;20024;-79
2021/11/22 04:33:25;;;;;;;1.25;1.25;;;;;;;0.45;78.07;98477.69;6371495;22;20013;-78
2021/11/22 04:35:51;;;;;;;1.05;1.05;;;;;;;0.37;77.66;98468.56;6370677;22;20013;-80
2021/11/22 04:38:17;;;;;;;0.60;0.60;;;;;;;0.46;77.62;98488.75;6366829;22;20041;-79
2021/11/22 04:40:43;;;;;;;0.60;0.60;;;;;;;0.46;77.76;98496.47;6396503;22;20017;-79
2021/11/22 04:43:09;;;;;;;0.60;0.60;;;;;;;0.40;78.60;98496.69;6368426;22;20021;-78
2021/11/22 04:45:36;;;;;;;0.70;0.70;;;;;;;0.36;79.04;98495.16;6368065;22;20029;-79
2021/11/22 04:48:03;;;;;;;0.60;0.60;;;;;;;0.43;77.88;98501.69;6396634;22;20100;-78
2021/11/22 04:50:29;;;;;;;0.50;0.50;;;;;;;0.40;78.34;98509.50;6367104;22;20101;-78
2021/11/22 04:52:56;;;;;;;0.60;0.60;;;;;;;0.39;78.02;98506.09;6365720;22;20013;-80
2021/11/22 04:55:23;;;;;;;0.63;0.63;;;;;;;0.46;76.77;98517.00;6314204;22;20049;-78
2021/11/22 04:57:49;;;;;;;0.93;0.93;;;;;;;0.47;76.51;98523.81;6394106;22;20045;-79
2021/11/22 05:00:16;;;;;;;0.60;0.60;;;;;;;0.41;77.10;98521.47;6394472;22;20028;-78
2021/11/22 05:02:45;;;;;;;0.60;0.60;;;;;;;0.47;76.89;98516.09;6365929;22;20014;-79
2021/11/22 05:05:12;;;;;;;0.50;0.50;;;;;;;0.49;76.17;98527.19;6340193;22;20025;-78
2021/11/22 05:07:38;;;;;;;0.60;0.60;;;;;;;0.45;77.36;98526.44;6367392;22;20019;-79
2021/11/22 05:10:04;;;;;;;0.60;0.60;;;;;;;0.42;77.10;98547.09;6395608;22;20052;-78
2021/11/22 05:12:30;;;;;;;0.52;0.52;;;;;;;0.35;77.65;98553.31;6341122;22;20018;-79
2021/11/22 05:14:56;;;;;;;0.60;0.60;;;;;;;0.39;77.71;98559.19;6396299;22;20018;-78
2021/11/22 05:17:23;;;;;;;0.60;0.60;;;;;;;0.41;76.83;98567.66;6341993;22;20013;-77
2021/11/22 05:19:49;;;;;;;0.60;0.60;;;;;;;0.47;73.84;98578.56;6389299;22;20021;-79
2021/11/22 05:22:19;;;;;;;0.90;0.90;;;;;;;0.49;73.25;98589.59;6368533;22;20022;-78
2021/11/22 05:24:49;;;;;;;0.55;0.55;;;;;;;0.44;74.77;98583.78;6367953;22;20025;-78
2021/11/22 05:27:19;;;;;;;0.55;0.55;;;;;;;0.39;73.13;98583.09;6317022;22;20026;-79
2021/11/22 05:29:45;;;;;;;0.60;0.60;;;;;;;0.46;72.22;98594.84;6341442;22;20049;-78
2021/11/22 05:32:16;;;;;;;0.50;0.50;;;;;;;0.45;71.53;98605.16;6395458;22;20251;-77
2021/11/22 05:34:50;;;;;;;0.70;0.70;;;;;;;0.40;71.79;98599.34;6366603;22;20461;-77
2021/11/22 05:37:16;;;;;;;0.70;0.70;;;;;;;0.35;71.97;98598.66;6395140;22;20449;-76
2021/11/22 05:39:43;;;;;;;0.60;0.60;;;;;;;0.34;71.78;98610.66;6366827;22;20018;-77
2021/11/22 05:42:09;;;;;;;0.50;0.50;;;;;;;0.37;71.96;98615.69;6367303;22;20039;-75
2021/11/22 05:44:35;;;;;;;0.50;0.50;;;;;;;0.40;71.96;98619.88;6340905;22;20433;-77
2021/11/22 05:47:02;;;;;;;0.50;0.50;;;;;;;0.37;71.58;98622.53;6367808;22;20139;-77
2021/11/22 05:49:31;;;;;;;0.68;0.68;;;;;;;0.39;71.20;98631.06;6395563;22;20025;-76
2021/11/22 05:51:57;;;;;;;0.98;0.98;;;;;;;0.39;71.04;98628.47;6394594;22;20071;-76
2021/11/22 05:54:24;;;;;;;0.80;0.80;;;;;;;0.45;71.38;98638.53;6366944;22;20095;-77
2021/11/22 05:56:51;;;;;;;0.63;0.63;;;;;;;0.43;71.37;98645.44;6288672;22;20427;-77
2021/11/22 06:00:12;;;;;;;0.60;0.60;;;;;;;0.47;72.18;98659.84;6369273;22;20013;-77
2021/11/22 06:03:43;;;;;;;0.60;0.60;;;;;;;0.46;71.21;98658.16;6367976;22;20025;-76
2021/11/22 06:06:13;;;;;;;0.60;0.60;;;;;;;0.33;72.54;98642.34;6369282;22;20049;-75
2021/11/22 06:08:39;;;;;;;0.60;0.60;;;;;;;0.43;71.90;98666.81;6370907;22;20018;-75
2021/11/22 06:11:05;;;;;;;0.60;0.60;;;;;;;0.45;71.80;98677.03;6399803;22;20032;-76
2021/11/22 06:13:32;;;;;;;0.70;0.70;;;;;;;0.50;71.59;98681.13;6373284;22;20014;-76
2021/11/22 06:15:58;;;;;;;0.60;0.60;;;;;;;0.50;72.22;98682.84;6401434;22;20013;-76
2021/11/22 06:18:25;;;;;;;0.60;0.60;;;;;;;0.50;70.96;98686.25;6395391;22;20074;-76
2021/11/22 06:20:52;;;;;;;0.70;0.70;;;;;;;0.40;70.58;98676.34;6391210;22;20013;-77
2021/11/22 06:23:18;;;;;;;1.23;1.23;;;;;;;0.48;70.81;98694.91;6339824;22;20576;-76
2021/11/22 06:25:44;;;;;;;0.70;0.70;;;;;;;0.43;71.80;98694.19;6365782;22;20014;-76
2021/11/22 06:28:10;;;;;;;0.60;0.60;;;;;;;0.40;72.67;98702.84;6364795;22;20041;-79
2021/11/22 06:30:37;;;;;;;1.08;1.08;;;;;;;0.32;72.15;98716.81;6394385;22;20018;-75
2021/11/22 06:33:06;;;;;;;1.45;1.45;;;;;;;-0.16;76.04;98730.25;6367313;22;20014;-75
2021/11/22 06:35:36;;;;;;;2.78;2.15;;;;;;;-0.18;76.41;98737.19;6318551;22;20024;-76
2021/11/22 06:38:02;;;;;;;1.15;1.15;;;;;;;-0.11;73.93;98738.69;6393831;22;20014;-73
2021/11/22 06:40:28;;;;;;;1.30;1.30;;;;;;;-0.05;70.33;98717.97;6339674;22;20025;-79
2021/11/22 06:42:54;;;;;;;1.17;1.17;;;;;;;-0.03;71.70;98744.41;6339502;22;20066;-78
2021/11/22 06:45:20;;;;;;;0.65;0.65;;;;;;;-0.10;73.77;98758.28;6393431;22;20109;-76
2021/11/22 06:47:46;;;;;;;0.90;0.90;;;;;;;-0.14;73.46;98772.09;6393491;22;20017;-78
2021/11/22 06:50:13;;;;;;;1.20;1.20;;;;;;;-0.29;76.07;98772.53;6393600;22;20018;-79
2021/11/22 06:52:39;;;;;;;1.70;1.60;;;;;;;-0.38;76.42;98783.06;6365562;22;20018;-78
2021/11/22 06:55:06;;;;;;;0.73;0.73;;;;;;;-0.34;74.58;98794.91;6394588;22;20100;-79
2021/11/22 06:57:32;;;;;;;1.27;1.27;;;;;;;-0.30;72.25;98796.50;6393032;22;20014;-78
2021/11/22 06:59:58;;;;;;;1.02;1.02;;;;;;;-0.27;71.21;98800.72;6365959;22;20064;-76
2021/11/22 07:02:25;;;;;;;0.65;0.65;;;;;;;-0.33;70.98;98819.66;6340209;22;20022;-77
2021/11/22 07:04:51;;;;;;;1.35;1.35;;;;;;;-0.47;69.94;98821.75;6364862;22;20017;-77
2021/11/22 07:07:17;;;;;;;1.25;1.25;;;;;;;-0.46;70.41;98825.16;6365621;22;20357;-76
2021/11/22 07:09:44;;;;;;;0.90;0.90;;;;;;;-0.51;70.78;98835.53;6393242;22;20105;-76
2021/11/22 07:12:10;;;;;;;1.90;1.80;;;;;;;-0.55;71.59;98831.38;6340305;22;20024;-75
2021/11/22 07:14:37;;;;;;;0.63;0.63;;;;;;;-0.46;71.26;98853.38;6366185;22;20536;-76
2021/11/22 07:17:04;;;;;;;1.48;1.42;;;;;;;-0.35;70.34;98859.88;6393610;22;20017;-75
2021/11/22 07:19:30;;;;;;;3.95;1.35;;;;;;;-0.35;70.37;98865.00;6393999;22;20017;-78
2021/11/22 07:22:00;;;;;;;1.45;1.45;;;;;;;-0.37;70.02;98877.03;6393177;22;20025;-75
2021/11/22 07:24:26;;;;;;;0.93;0.93;;;;;;;-0.38;68.87;98879.63;6392773;22;20037;-75
2021/11/22 07:26:53;;;;;;;1.13;1.13;;;;;;;-0.37;68.99;98892.41;6365538;22;20021;-76
2021/11/22 07:29:20;;;;;;;1.80;1.70;;;;;;;-0.44;67.80;98888.31;6365293;22;20018;-76
2021/11/22 07:31:47;;;;;;;0.93;0.93;;;;;;;-0.41;67.56;98895.06;6365762;22;20034;-76
2021/11/22 07:34:13;;;;;;;0.80;0.80;;;;;;;-0.48;68.25;98904.66;6365829;22;20022;-75
2021/11/22 07:36:39;;;;;;;0.70;0.70;;;;;;;-0.33;68.79;98903.44;6393231;22;20508;-75
2021/11/22 07:39:05;;;;;;;0.85;0.85;;;;;;;-0.27;65.53;98904.09;6365692;22;20538;-75
2021/11/22 07:41:32;;;;;;;1.17;1.08;;;;;;;0.72;60.11;98909.78;6393505;22;20553;-75
2021/11/22 07:43:58;;;;;;;0.90;0.90;;;;;;;-0.41;63.80;98923.28;6393412;22;20018;-77
2021/11/22 07:46:24;;;;;;;1.33;1.00;;;;;;;-0.48;60.66;98886.72;6393972;22;20036;-77
2021/11/22 07:48:51;;;;;;;0.98;0.98;;;;;;;0.23;58.88;98930.09;6339130;22;20642;-78
2021/11/22 07:51:17;;;;;;;1.20;1.20;;;;;;;0.06;57.61;98916.88;6392375;22;20017;-77
2021/11/22 07:53:43;;;;;;;0.60;0.60;;;;;;;0.22;57.28;98954.91;6392529;22;20018;-78
2021/11/22 07:56:10;;;;;;;1.48;1.38;;;;;;;-0.21;59.29;98955.22;6395003;22;20093;-77
2021/11/22 07:58:36;;;;;;;1.30;1.30;;;;;;;-0.38;59.94;98957.38;6390551;22;20474;-75
2021/11/22 08:01:03;;;;;;;1.85;1.65;;;;;;;-0.58;61.76;98978.38;6392041;22;20009;-77
2021/11/22 08:03:29;;;;;;;2.85;1.20;;;;;;;-0.41;60.42;98957.44;6363903;22;20018;-77
2021/11/22 08:05:58;;;;;;;1.70;1.60;;;;;;;-0.65;62.47;98978.53;6339240;22;20102;-76
2021/11/22 08:08:26;;;;;;;0.95;0.95;;;;;;;-0.72;61.34;98982.16;6366924;22;20079;-76
2021/11/22 08:11:05;;;;;;;1.35;1.35;;;;;;;-0.42;61.27;98986.50;6366995;22;20025;-76
2021/11/22 08:13:34;;;;;;;1.20;1.20;;;;;;;-0.53;62.43;98983.38;6395631;22;20524;-76
2021/11/22 08:16:02;;;;;;;2.58;1.38;;;;;;;-0.13;61.99;98983.25;6338885;22;20021;-77
2021/11/22 08:18:28;;;;;;;1.05;1.05;;;;;;;0.19;60.52;99008.03;6365050;22;20017;-77
2021/11/22 08:20:54;;;;;;;0.70;0.70;;;;;;;-0.49;61.73;99000.34;6365681;22;20021;-75
2021/11/22 08:23:20;;;;;;;1.67;1.60;;;;;;;-0.59;63.10;99021.97;6393782;22;20362;-77
2021/11/22 08:25:46;;;;;;;1.52;1.42;;;;;;;-0.68;63.66;98999.97;6365135;22;20452;-75
2021/11/22 08:28:12;;;;;;;1.35;1.35;;;;;;;-0.79;61.71;99008.78;6365336;22;20017;-77
2021/11/22 08:30:38;;;;;;;0.60;0.60;;;;;;;-0.82;64.06;99021.66;6394481;22;20095;-75
2021/11/22 08:33:04;;;;;;;0.95;0.95;;;;;;;-0.88;63.74;99026.94;6395755;22;20014;-77
2021/11/22 08:35:33;;;;;;;1.75;1.65;;;;;;;-0.23;60.28;99013.38;6395455;22;20457;-77
2021/11/22 08:38:00;;;;;;;1.25;1.15;;;;;;;-0.89;62.56;99030.34;6367419;22;20029;-77
2021/11/22 08:40:26;;;;;;;0.50;0.50;;;;;;;-0.84;64.46;99036.22;6341586;22;20448;-77
2021/11/22 08:42:54;;;;;;;0.60;0.60;;;;;;;-0.84;63.40;99033.66;6367327;22;20405;-76
2021/11/22 08:45:21;;;;;;;0.82;0.82;;;;;;;-0.88;63.36;99027.75;6315411;22;20022;-77
2021/11/22 08:47:47;;;;;;;0.90;0.90;;;;;;;-0.77;64.04;99048.00;6366989;22;20022;-76
2021/11/22 08:50:16;;;;;;;0.93;0.93;;;;;;;-0.85;62.96;99031.97;6392885;22;20028;-76
2021/11/22 08:52:42;;;;;;;2.08;1.98;;;;;;;-0.92;63.20;99040.66;6341931;22;20592;-78
2021/11/22 08:55:08;;;;;;;1.17;1.17;;;;;;;-0.86;62.56;99053.34;6370178;22;20044;-79
2021/11/22 08:57:35;;;;;;;1.90;1.80;;;;;;;-0.83;62.72;99055.84;6399981;22;20013;-78
2021/11/22 09:00:11;;;;;;;1.05;1.05;;;;;;;-0.68;62.76;99055.47;6395144;22;20025;-77
2021/11/22 09:02:37;;;;;;;1.50;1.50;;;;;;;-0.70;61.25;99052.13;6395566;22;20511;-77
2021/11/22 09:05:03;;;;;;;3.25;2.00;;;;;;;-0.80;61.30;99054.06;6395786;22;20014;-78
2021/11/22 09:07:29;;;;;;;1.50;1.50;;;;;;;-0.84;62.05;99043.88;6395578;22;20013;-77
2021/11/22 09:09:55;;;;;;;0.95;0.95;;;;;;;-0.86;62.94;99061.03;6367179;22;20021;-76
2021/11/22 09:12:21;;;;;;;1.40;1.40;;;;;;;-0.80;63.22;99069.41;6340640;22;20018;-75
2021/11/22 09:14:48;;;;;;;1.98;1.90;;;;;;;-0.78;64.50;99077.06;6366671;22;20018;-76
2021/11/22 09:17:14;;;;;;;1.05;1.05;;;;;;;-0.79;63.44;99073.69;6367345;22;20024;-73
2021/11/22 09:19:41;;;;;;;3.50;1.20;;;;;;;-0.70;64.31;99076.03;6394714;22;20461;-75
2021/11/22 09:22:11;;;;;;;0.98;0.98;;;;;;;-0.65;64.79;99083.59;6314298;22;20040;-75
2021/11/22 09:24:37;;;;;;;0.80;0.80;;;;;;;-0.66;64.38;99069.13;6394671;22;20013;-74
2021/11/22 09:27:04;;;;;;;1.27;1.27;;;;;;;-0.67;63.93;99072.56;6395086;22;20065;-74
2021/11/22 09:29:30;;;;;;;0.75;0.75;;;;;;;-0.63;63.31;99079.28;6366581;22;20105;-77
2021/11/22 09:31:56;;;;;;;0.50;0.50;;;;;;;-0.66;63.29;99069.13;6340749;22;20022;-75
2021/11/22 09:34:22;;;;;;;0.55;0.55;;;;;;;-0.62;62.15;99078.41;6340418;22;20100;-75
2021/11/22 09:36:48;;;;;;;0.60;0.60;;;;;;;-0.59;62.47;99080.91;6365834;22;20057;-75
2021/11/22 09:39:15;;;;;;;1.58;1.00;;;;;;;-0.66;61.77;99092.19;6366316;22;20093;-75
2021/11/22 09:41:44;;;;;;;8.85;1.13;;;;;;;-0.61;61.39;99093.75;6367228;22;20458;-75
2021/11/22 09:44:10;;;;;;;0.60;0.60;;;;;;;-0.44;62.31;99089.97;6366776;22;20647;-76
2021/11/22 09:46:36;;;;;;;0.73;0.73;;;;;;;-0.43;61.45;99089.94;6366140;22;20590;-76
2021/11/22 09:49:03;;;;;;;0.50;0.50;;;;;;;-0.49;60.24;99102.88;6395166;22;20037;-76
2021/11/22 09:51:30;;;;;;;1.38;1.02;;;;;;;-0.47;57.85;99116.50;6366857;22;20497;-75
2021/11/22 09:53:57;;;;;;;0.80;0.80;;;;;;;-0.42;58.27;99109.56;6367867;22;20086;-77
2021/11/22 09:56:24;;;;;;;0.63;0.63;;;;;;;-0.19;57.76;99122.69;6396084;22;20022;-75
2021/11/22 09:58:51;;;;;;;0.60;0.60;;;;;;;-0.06;59.80;99112.97;6395666;22;20018;-75
2021/11/22 10:01:17;;;;;;;0.60;0.60;;;;;;;-0.11;59.61;99127.66;6315732;22;20105;-75
2021/11/22 10:04:00;;;;;;;0.95;0.95;;;;;;;-0.04;59.07;99124.91;6396124;22;20024;-75
2021/11/22 10:06:27;;;;;;;0.55;0.55;;;;;;;-0.15;58.00;99143.97;6395936;22;20014;-74
2021/11/22 10:08:54;;;;;;;0.60;0.60;;;;;;;-0.16;58.98;99144.84;6394232;22;20018;-75
2021/11/22 10:11:20;;;;;;;0.77;0.77;;;;;;;-0.24;59.58;99139.91;6365788;22;20378;-75
2021/11/22 10:13:46;;;;;;;0.60;0.60;;;;;;;-0.02;58.30;99148.78;6365993;22;20510;-75
2021/11/22 10:16:12;;;;;;;0.80;0.80;;;;;;;-0.07;59.37;99144.66;6395236;22;20558;-75
2021/11/22 10:18:39;;;;;;;0.60;0.60;;;;;;;-0.08;58.57;99161.75;6395716;22;20044;-75
2021/11/22 10:21:07;;;;;;;0.80;0.80;;;;;;;0.14;57.05;99153.53;6367884;22;20533;-75
2021/11/22 10:23:33;;;;;;;1.00;1.00;;;;;;;0.12;58.00;99169.00;6395320;22;20017;-76
2021/11/22 10:25:59;;;;;;;0.70;0.70;;;;;;;0.01;57.39;99165.81;6396047;22;20035;-74
2021/11/22 10:28:30;;;;;;;1.00;1.00;;;;;;;0.10;56.65;99180.16;6367500;22;20346;-75
2021/11/22 10:30:58;;;;;;;1.15;1.10;;;;;;;-0.03;56.93;99170.19;6366735;22;20114;-75
2021/11/22 10:33:27;;;;;;;0.70;0.70;;;;;;;-0.11;56.03;99166.97;6367285;22;20400;-74
2021/11/22 10:35:56;;;;;;;0.70;0.70;;;;;;;-0.07;55.39;99180.56;6367364;22;20018;-75
2021/11/22 10:38:24;;;;;;;0.50;0.50;;;;;;;-0.08;56.31;99179.72;6366809;22;20040;-75
2021/11/22 10:41:03;;;;;;;0.50;0.50;;;;;;;0.01;57.70;99194.03;6393997;22;20041;-75
2021/11/22 10:43:37;;;;;;;1.52;0.82;;;;;;;0.03;56.60;99184.59;6394345;22;20014;-74
2021/11/22 10:46:06;;;;;;;1.30;1.13;;;;;;;-0.34;56.13;99205.09;6366492;22;20018;-75
2021/11/22 10:48:32;;;;;;;1.30;1.25;;;;;;;-0.33;57.29;99204.22;6340739;22;20017;-75
2021/11/22 10:51:16;;;;;;;0.90;0.90;;;;;;;-0.40;57.09;99210.34;6394447;22;20476;-76
2021/11/22 10:53:46;;;;;;;0.88;0.88;;;;;;;-0.48;56.43;99212.22;6394189;22;20017;-76
2021/11/22 10:56:15;;;;;;;4.07;1.65;;;;;;;-0.51;56.45;99209.72;6394284;22;20394;-78
2021/11/22 10:58:48;;;;;;;0.90;0.90;;;;;;;-0.59;57.75;99209.06;6366128;22;20025;-77
2021/11/22 11:01:25;;;;;;;0.50;0.50;;;;;;;-0.55;57.91;99226.03;6339987;22;20103;-77
2021/11/22 11:03:56;;;;;;;0.60;0.60;;;;;;;-0.68;58.39;99216.91;6366123;22;20453;-78
2021/11/22 11:06:56;;;;;;;0.60;0.60;;;;;;;-0.69;57.68;99225.50;6339796;22;20122;-77
2021/11/22 11:09:25;;;;;;;0.63;0.63;;;;;;;-0.75;56.98;99229.00;6393376;22;20037;-77
2021/11/22 11:12:13;;;;;;;0.50;0.50;;;;;;;-0.86;56.49;99246.31;6394066;22;20360;-79
2021/11/22 11:14:44;;;;;;;4.63;1.30;;;;;;;-0.98;56.01;99240.56;6339355;22;20029;-77
2021/11/22 11:17:34;;;;;;;0.40;0.40;;;;;;;-1.02;56.66;99238.94;6394417;22;20024;-77
2021/11/22 11:20:11;;;;;;;0.80;0.80;;;;;;;-0.94;56.39;99253.28;6366497;22;20018;-79
2021/11/22 11:22:37;;;;;;;0.73;0.73;;;;;;;-0.86;55.73;99248.00;6393683;22;20103;-78
2021/11/22 11:25:05;;;;;;;0.63;0.63;;;;;;;-0.79;56.88;99267.53;6364336;22;20037;-80
2021/11/22 11:27:35;;;;;;;0.60;0.60;;;;;;;-0.77;56.80;99264.06;6397181;22;20025;-74
2021/11/22 11:30:01;;;;;;;0.50;0.50;;;;;;;-0.68;56.19;99268.16;6346743;22;20024;-76
2021/11/22 11:32:29;;;;;;;1.15;1.15;;;;;;;-0.60;56.68;99272.28;6368774;22;20033;-76
2021/11/22 11:34:55;;;;;;;1.00;1.00;;;;;;;-0.58;56.61;99269.66;6367929;22;20024;-76
2021/11/22 11:37:30;;;;;;;0.70;0.70;;;;;;;-0.55;56.58;99279.84;6397508;22;20100;-76
2021/11/22 11:40:37;;;;;;;0.85;0.85;;;;;;;-0.68;56.21;99288.66;6369730;22;20014;-78
2021/11/22 11:46:34;;;;;;;1.33;1.33;;;;;;;-0.77;55.30;99312.75;6378022;22;20067;-79